sensor_id;sensor_type;location;lat;lon;timestamp;P1;durP1;ratioP1;P2;durP2;ratioP2
11539;SDS011;5826;54.756;9.192;2022-10-04T00:06:48;2.28;;;1.27;;
11539;SDS011;5826;54.756;9.192;2022-10-04T00:09:35;2.58;;;1.00;;
11539;SDS011;5826;54.756;9.192;2022-10-04T00:12:16;2.03;;;1.25;;
11539;SDS011;5826;54.756;9.192;2022-10-04T00:14:50;2.28;;;1.13;;
11539;SDS011;5826;54.756;9.192;2022-10-04T00:17:20;2.03;;;1.33;;
11539;SDS011;5826;54.756;9.192;2022-10-04T00:19:48;2.17;;;1.10;;
11539;SDS011;5826;54.756;9.192;2022-10-04T00:22:16;2.97;;;1.30;;
11539;SDS011;5826;54.756;9.192;2022-10-04T00:24:59;3.03;;;1.30;;
11539;SDS011;5826;54.756;9.192;2022-10-04T00:27:25;2.67;;;1.20;;
11539;SDS011;5826;54.756;9.192;2022-10-04T00:32:27;1.92;;;1.30;;
11539;SDS011;5826;54.756;9.192;2022-10-04T00:34:53;4.13;;;1.10;;
11539;SDS011;5826;54.756;9.192;2022-10-04T00:37:20;4.07;;;1.05;;
11539;SDS011;5826;54.756;9.192;2022-10-04T00:40:02;1.92;;;1.00;;
11539;SDS011;5826;54.756;9.192;2022-10-04T00:42:56;2.65;;;1.10;;
11539;SDS011;5826;54.756;9.192;2022-10-04T00:45:27;1.65;;;1.10;;
11539;SDS011;5826;54.756;9.192;2022-10-04T00:50:56;2.17;;;0.90;;
11539;SDS011;5826;54.756;9.192;2022-10-04T00:53:36;1.70;;;1.10;;
11539;SDS011;5826;54.756;9.192;2022-10-04T00:56:14;2.50;;;1.00;;
11539;SDS011;5826;54.756;9.192;2022-10-04T01:01:21;1.92;;;0.90;;
11539;SDS011;5826;54.756;9.192;2022-10-04T01:03:50;1.95;;;1.13;;
11539;SDS011;5826;54.756;9.192;2022-10-04T01:06:17;1.92;;;1.10;;
11539;SDS011;5826;54.756;9.192;2022-10-04T01:08:46;3.10;;;1.20;;
11539;SDS011;5826;54.756;9.192;2022-10-04T01:11:15;2.33;;;1.52;;
11539;SDS011;5826;54.756;9.192;2022-10-04T01:14:03;2.38;;;1.20;;
11539;SDS011;5826;54.756;9.192;2022-10-04T01:16:37;2.40;;;1.23;;
11539;SDS011;5826;54.756;9.192;2022-10-04T01:24:35;2.47;;;1.30;;
11539;SDS011;5826;54.756;9.192;2022-10-04T01:27:02;3.30;;;1.67;;
11539;SDS011;5826;54.756;9.192;2022-10-04T01:29:28;2.95;;;1.33;;
11539;SDS011;5826;54.756;9.192;2022-10-04T01:31:56;2.28;;;1.50;;
11539;SDS011;5826;54.756;9.192;2022-10-04T01:34:24;3.85;;;2.08;;
11539;SDS011;5826;54.756;9.192;2022-10-04T01:36:53;4.10;;;1.63;;
11539;SDS011;5826;54.756;9.192;2022-10-04T01:39:21;3.58;;;1.90;;
11539;SDS011;5826;54.756;9.192;2022-10-04T01:44:40;2.22;;;1.33;;
11539;SDS011;5826;54.756;9.192;2022-10-04T01:47:13;3.15;;;1.38;;
11539;SDS011;5826;54.756;9.192;2022-10-04T01:49:43;2.45;;;1.27;;
11539;SDS011;5826;54.756;9.192;2022-10-04T01:54:46;2.92;;;1.20;;
11539;SDS011;5826;54.756;9.192;2022-10-04T01:57:16;2.78;;;1.20;;
11539;SDS011;5826;54.756;9.192;2022-10-04T02:00:02;2.95;;;1.17;;
11539;SDS011;5826;54.756;9.192;2022-10-04T02:05:29;1.88;;;1.05;;
11539;SDS011;5826;54.756;9.192;2022-10-04T02:08:12;2.58;;;1.17;;
11539;SDS011;5826;54.756;9.192;2022-10-04T02:10:40;1.52;;;1.10;;
11539;SDS011;5826;54.756;9.192;2022-10-04T02:13:07;3.53;;;1.40;;
11539;SDS011;5826;54.756;9.192;2022-10-04T02:15:35;3.92;;;1.38;;
11539;SDS011;5826;54.756;9.192;2022-10-04T02:18:04;2.13;;;1.30;;
11539;SDS011;5826;54.756;9.192;2022-10-04T02:20:38;2.05;;;1.50;;
11539;SDS011;5826;54.756;9.192;2022-10-04T02:23:05;2.08;;;1.40;;
11539;SDS011;5826;54.756;9.192;2022-10-04T02:25:32;2.63;;;1.30;;
11539;SDS011;5826;54.756;9.192;2022-10-04T02:28:01;2.47;;;1.45;;
11539;SDS011;5826;54.756;9.192;2022-10-04T02:30:26;3.95;;;1.48;;
11539;SDS011;5826;54.756;9.192;2022-10-04T02:32:53;2.30;;;1.27;;
11539;SDS011;5826;54.756;9.192;2022-10-04T02:35:28;2.47;;;1.00;;
11539;SDS011;5826;54.756;9.192;2022-10-04T02:38:08;2.13;;;1.20;;
11539;SDS011;5826;54.756;9.192;2022-10-04T02:40:40;1.92;;;1.02;;
11539;SDS011;5826;54.756;9.192;2022-10-04T02:43:21;1.83;;;1.08;;
11539;SDS011;5826;54.756;9.192;2022-10-04T02:45:53;1.63;;;1.10;;
11539;SDS011;5826;54.756;9.192;2022-10-04T02:51:04;1.45;;;1.10;;
11539;SDS011;5826;54.756;9.192;2022-10-04T02:53:45;1.45;;;0.90;;
11539;SDS011;5826;54.756;9.192;2022-10-04T02:56:21;1.05;;;0.90;;
11539;SDS011;5826;54.756;9.192;2022-10-04T02:58:49;1.80;;;1.08;;
11539;SDS011;5826;54.756;9.192;2022-10-04T03:01:23;0.90;;;0.80;;
11539;SDS011;5826;54.756;9.192;2022-10-04T03:03:50;1.13;;;0.90;;
11539;SDS011;5826;54.756;9.192;2022-10-04T03:06:18;1.75;;;0.90;;
11539;SDS011;5826;54.756;9.192;2022-10-04T03:08:45;1.10;;;0.80;;
11539;SDS011;5826;54.756;9.192;2022-10-04T03:11:15;1.42;;;1.00;;
11539;SDS011;5826;54.756;9.192;2022-10-04T03:13:44;1.77;;;1.00;;
11539;SDS011;5826;54.756;9.192;2022-10-04T03:16:11;1.33;;;0.80;;
11539;SDS011;5826;54.756;9.192;2022-10-04T03:18:37;3.90;;;1.13;;
11539;SDS011;5826;54.756;9.192;2022-10-04T03:21:04;1.30;;;1.00;;
11539;SDS011;5826;54.756;9.192;2022-10-04T03:23:32;1.70;;;0.90;;
11539;SDS011;5826;54.756;9.192;2022-10-04T03:26:02;1.38;;;0.70;;
11539;SDS011;5826;54.756;9.192;2022-10-04T03:28:43;1.00;;;0.65;;
11539;SDS011;5826;54.756;9.192;2022-10-04T03:31:10;1.98;;;0.68;;
11539;SDS011;5826;54.756;9.192;2022-10-04T03:33:37;1.08;;;0.80;;
11539;SDS011;5826;54.756;9.192;2022-10-04T03:36:04;1.75;;;0.90;;
11539;SDS011;5826;54.756;9.192;2022-10-04T03:38:30;1.27;;;0.80;;
11539;SDS011;5826;54.756;9.192;2022-10-04T03:40:59;2.63;;;1.05;;
11539;SDS011;5826;54.756;9.192;2022-10-04T03:43:29;1.88;;;1.00;;
11539;SDS011;5826;54.756;9.192;2022-10-04T03:45:58;1.58;;;0.85;;
11539;SDS011;5826;54.756;9.192;2022-10-04T03:48:29;1.65;;;0.70;;
11539;SDS011;5826;54.756;9.192;2022-10-04T03:50:58;2.47;;;0.80;;
11539;SDS011;5826;54.756;9.192;2022-10-04T03:53:27;1.38;;;0.70;;
11539;SDS011;5826;54.756;9.192;2022-10-04T03:55:56;1.65;;;0.70;;
11539;SDS011;5826;54.756;9.192;2022-10-04T03:58:23;0.98;;;0.80;;
11539;SDS011;5826;54.756;9.192;2022-10-04T04:00:57;1.10;;;0.75;;
11539;SDS011;5826;54.756;9.192;2022-10-04T04:06:21;1.35;;;0.68;;
11539;SDS011;5826;54.756;9.192;2022-10-04T04:08:48;1.02;;;0.60;;
11539;SDS011;5826;54.756;9.192;2022-10-04T04:11:24;2.60;;;0.98;;
11539;SDS011;5826;54.756;9.192;2022-10-04T04:14:01;2.08;;;0.88;;
11539;SDS011;5826;54.756;9.192;2022-10-04T04:16:35;1.10;;;0.65;;
11539;SDS011;5826;54.756;9.192;2022-10-04T04:19:01;2.00;;;0.88;;
11539;SDS011;5826;54.756;9.192;2022-10-04T04:21:29;1.45;;;0.70;;
11539;SDS011;5826;54.756;9.192;2022-10-04T04:23:56;1.50;;;0.80;;
11539;SDS011;5826;54.756;9.192;2022-10-04T04:26:32;1.30;;;0.63;;
11539;SDS011;5826;54.756;9.192;2022-10-04T04:29:10;2.65;;;0.90;;
11539;SDS011;5826;54.756;9.192;2022-10-04T04:31:50;0.93;;;0.70;;
11539;SDS011;5826;54.756;9.192;2022-10-04T04:34:24;1.00;;;0.90;;
11539;SDS011;5826;54.756;9.192;2022-10-04T04:37:00;1.48;;;1.00;;
11539;SDS011;5826;54.756;9.192;2022-10-04T04:39:28;3.50;;;1.10;;
11539;SDS011;5826;54.756;9.192;2022-10-04T04:42:02;2.30;;;1.10;;
11539;SDS011;5826;54.756;9.192;2022-10-04T04:44:53;1.50;;;0.80;;
11539;SDS011;5826;54.756;9.192;2022-10-04T04:49:57;1.80;;;0.85;;
11539;SDS011;5826;54.756;9.192;2022-10-04T04:52:30;1.98;;;0.80;;
11539;SDS011;5826;54.756;9.192;2022-10-04T04:54:57;1.77;;;1.10;;
11539;SDS011;5826;54.756;9.192;2022-10-04T04:57:23;2.38;;;1.30;;
11539;SDS011;5826;54.756;9.192;2022-10-04T04:59:51;3.97;;;1.40;;
11539;SDS011;5826;54.756;9.192;2022-10-04T05:02:27;1.95;;;1.30;;
11539;SDS011;5826;54.756;9.192;2022-10-04T05:07:39;2.25;;;1.10;;
11539;SDS011;5826;54.756;9.192;2022-10-04T05:12:57;3.42;;;1.02;;
11539;SDS011;5826;54.756;9.192;2022-10-04T05:15:27;3.78;;;0.95;;
11539;SDS011;5826;54.756;9.192;2022-10-04T05:18:01;2.72;;;1.08;;
11539;SDS011;5826;54.756;9.192;2022-10-04T05:20:37;2.13;;;1.00;;
11539;SDS011;5826;54.756;9.192;2022-10-04T05:23:02;3.25;;;1.00;;
11539;SDS011;5826;54.756;9.192;2022-10-04T05:25:30;2.33;;;0.90;;
11539;SDS011;5826;54.756;9.192;2022-10-04T05:27:57;3.78;;;1.00;;
11539;SDS011;5826;54.756;9.192;2022-10-04T05:30:43;2.45;;;0.95;;
11539;SDS011;5826;54.756;9.192;2022-10-04T05:33:44;2.17;;;1.00;;
11539;SDS011;5826;54.756;9.192;2022-10-04T05:39:06;3.15;;;1.08;;
11539;SDS011;5826;54.756;9.192;2022-10-04T05:44:29;1.58;;;1.00;;
11539;SDS011;5826;54.756;9.192;2022-10-04T05:46:59;2.75;;;1.00;;
11539;SDS011;5826;54.756;9.192;2022-10-04T05:49:30;2.10;;;1.00;;
11539;SDS011;5826;54.756;9.192;2022-10-04T05:52:01;2.22;;;0.90;;
11539;SDS011;5826;54.756;9.192;2022-10-04T05:54:31;1.88;;;1.10;;
11539;SDS011;5826;54.756;9.192;2022-10-04T05:57:09;2.55;;;1.60;;
11539;SDS011;5826;54.756;9.192;2022-10-04T05:59:51;3.42;;;1.35;;
11539;SDS011;5826;54.756;9.192;2022-10-04T06:08:23;4.55;;;1.83;;
11539;SDS011;5826;54.756;9.192;2022-10-04T06:19:13;4.05;;;1.52;;
11539;SDS011;5826;54.756;9.192;2022-10-04T06:22:03;4.53;;;1.60;;
11539;SDS011;5826;54.756;9.192;2022-10-04T06:24:34;2.95;;;1.27;;
11539;SDS011;5826;54.756;9.192;2022-10-04T06:29:32;4.50;;;1.58;;
11539;SDS011;5826;54.756;9.192;2022-10-04T06:32:07;3.75;;;1.48;;
11539;SDS011;5826;54.756;9.192;2022-10-04T06:34:39;3.05;;;1.10;;
11539;SDS011;5826;54.756;9.192;2022-10-04T06:37:22;6.00;;;2.13;;
11539;SDS011;5826;54.756;9.192;2022-10-04T06:40:21;5.32;;;1.67;;
11539;SDS011;5826;54.756;9.192;2022-10-04T06:45:48;4.65;;;1.60;;
11539;SDS011;5826;54.756;9.192;2022-10-04T06:51:25;3.40;;;1.63;;
11539;SDS011;5826;54.756;9.192;2022-10-04T06:54:11;5.50;;;1.58;;
11539;SDS011;5826;54.756;9.192;2022-10-04T06:56:59;3.67;;;1.42;;
11539;SDS011;5826;54.756;9.192;2022-10-04T07:02:27;4.45;;;1.30;;
11539;SDS011;5826;54.756;9.192;2022-10-04T07:05:01;6.55;;;1.88;;
11539;SDS011;5826;54.756;9.192;2022-10-04T07:07:50;5.47;;;1.95;;
11539;SDS011;5826;54.756;9.192;2022-10-04T07:10:47;4.65;;;1.90;;
11539;SDS011;5826;54.756;9.192;2022-10-04T07:15:53;3.58;;;1.75;;
11539;SDS011;5826;54.756;9.192;2022-10-04T07:18:33;3.42;;;1.42;;
11539;SDS011;5826;54.756;9.192;2022-10-04T07:21:20;5.38;;;2.13;;
11539;SDS011;5826;54.756;9.192;2022-10-04T07:23:54;5.10;;;1.80;;
11539;SDS011;5826;54.756;9.192;2022-10-04T07:29:00;3.33;;;1.70;;
11539;SDS011;5826;54.756;9.192;2022-10-04T07:34:30;3.65;;;1.42;;
11539;SDS011;5826;54.756;9.192;2022-10-04T07:37:00;6.75;;;1.95;;
11539;SDS011;5826;54.756;9.192;2022-10-04T07:39:38;6.07;;;1.85;;
11539;SDS011;5826;54.756;9.192;2022-10-04T07:42:15;5.03;;;1.92;;
11539;SDS011;5826;54.756;9.192;2022-10-04T07:44:53;4.28;;;1.80;;
11539;SDS011;5826;54.756;9.192;2022-10-04T07:47:28;6.90;;;2.28;;
11539;SDS011;5826;54.756;9.192;2022-10-04T07:49:56;4.03;;;1.75;;
11539;SDS011;5826;54.756;9.192;2022-10-04T07:55:17;8.10;;;2.42;;
11539;SDS011;5826;54.756;9.192;2022-10-04T07:58:20;5.78;;;1.80;;
11539;SDS011;5826;54.756;9.192;2022-10-04T08:01:03;5.55;;;2.10;;
11539;SDS011;5826;54.756;9.192;2022-10-04T08:06:43;7.20;;;2.40;;
11539;SDS011;5826;54.756;9.192;2022-10-04T08:09:22;8.60;;;2.90;;
11539;SDS011;5826;54.756;9.192;2022-10-04T08:20:43;7.45;;;2.35;;
11539;SDS011;5826;54.756;9.192;2022-10-04T08:26:24;4.47;;;2.22;;
11539;SDS011;5826;54.756;9.192;2022-10-04T08:43:45;4.57;;;2.30;;
11539;SDS011;5826;54.756;9.192;2022-10-04T08:46:49;5.93;;;2.13;;
11539;SDS011;5826;54.756;9.192;2022-10-04T08:55:29;5.97;;;2.42;;
11539;SDS011;5826;54.756;9.192;2022-10-04T08:58:11;7.88;;;3.10;;
11539;SDS011;5826;54.756;9.192;2022-10-04T09:12:08;10.38;;;3.80;;
11539;SDS011;5826;54.756;9.192;2022-10-04T09:14:48;11.52;;;4.18;;
11539;SDS011;5826;54.756;9.192;2022-10-04T09:22:55;6.53;;;3.38;;
11539;SDS011;5826;54.756;9.192;2022-10-04T09:25:46;10.98;;;3.63;;
11539;SDS011;5826;54.756;9.192;2022-10-04T09:31:30;10.35;;;3.25;;
11539;SDS011;5826;54.756;9.192;2022-10-04T09:34:32;8.40;;;3.78;;
11539;SDS011;5826;54.756;9.192;2022-10-04T09:37:28;6.30;;;3.10;;
11539;SDS011;5826;54.756;9.192;2022-10-04T09:48:24;6.07;;;3.00;;
11539;SDS011;5826;54.756;9.192;2022-10-04T10:05:09;7.82;;;3.05;;
11539;SDS011;5826;54.756;9.192;2022-10-04T10:08:07;7.68;;;3.30;;
11539;SDS011;5826;54.756;9.192;2022-10-04T10:16:26;7.57;;;2.72;;
11539;SDS011;5826;54.756;9.192;2022-10-04T10:19:28;7.32;;;2.83;;
11539;SDS011;5826;54.756;9.192;2022-10-04T10:22:23;7.72;;;2.75;;
11539;SDS011;5826;54.756;9.192;2022-10-04T10:25:04;7.05;;;3.17;;
11539;SDS011;5826;54.756;9.192;2022-10-04T10:28:06;8.43;;;3.67;;
11539;SDS011;5826;54.756;9.192;2022-10-04T10:37:17;8.63;;;3.40;;
11539;SDS011;5826;54.756;9.192;2022-10-04T10:40:00;7.13;;;3.42;;
11539;SDS011;5826;54.756;9.192;2022-10-04T10:42:49;9.07;;;3.58;;
11539;SDS011;5826;54.756;9.192;2022-10-04T10:59:55;6.20;;;3.20;;
11539;SDS011;5826;54.756;9.192;2022-10-04T11:14:34;5.70;;;2.50;;
11539;SDS011;5826;54.756;9.192;2022-10-04T11:26:18;4.53;;;2.00;;
11539;SDS011;5826;54.756;9.192;2022-10-04T11:32:00;4.45;;;1.55;;
11539;SDS011;5826;54.756;9.192;2022-10-04T11:49:35;4.28;;;2.10;;
11539;SDS011;5826;54.756;9.192;2022-10-04T12:01:22;5.22;;;2.35;;
11539;SDS011;5826;54.756;9.192;2022-10-04T12:06:57;7.30;;;2.78;;
11539;SDS011;5826;54.756;9.192;2022-10-04T12:12:46;3.72;;;2.28;;
11539;SDS011;5826;54.756;9.192;2022-10-04T12:20:40;4.57;;;2.60;;
11539;SDS011;5826;54.756;9.192;2022-10-04T12:23:39;3.75;;;2.15;;
11539;SDS011;5826;54.756;9.192;2022-10-04T12:29:18;5.72;;;2.47;;
11539;SDS011;5826;54.756;9.192;2022-10-04T12:32:09;4.43;;;2.28;;
11539;SDS011;5826;54.756;9.192;2022-10-04T12:34:50;3.63;;;2.30;;
11539;SDS011;5826;54.756;9.192;2022-10-04T12:37:39;7.95;;;2.60;;
11539;SDS011;5826;54.756;9.192;2022-10-04T12:40:30;6.95;;;2.45;;
11539;SDS011;5826;54.756;9.192;2022-10-04T12:46:12;6.82;;;2.40;;
11539;SDS011;5826;54.756;9.192;2022-10-04T12:49:02;6.03;;;2.17;;
11539;SDS011;5826;54.756;9.192;2022-10-04T12:54:41;4.47;;;1.95;;
11539;SDS011;5826;54.756;9.192;2022-10-04T12:57:26;5.50;;;2.20;;
11539;SDS011;5826;54.756;9.192;2022-10-04T13:13:38;5.35;;;2.20;;
11539;SDS011;5826;54.756;9.192;2022-10-04T13:19:11;5.15;;;2.40;;
11539;SDS011;5826;54.756;9.192;2022-10-04T13:21:55;5.43;;;2.30;;
11539;SDS011;5826;54.756;9.192;2022-10-04T13:24:55;5.03;;;2.08;;
11539;SDS011;5826;54.756;9.192;2022-10-04T13:35:45;7.25;;;2.70;;
11539;SDS011;5826;54.756;9.192;2022-10-04T13:38:24;5.88;;;2.47;;
11539;SDS011;5826;54.756;9.192;2022-10-04T13:41:11;5.28;;;2.20;;
11539;SDS011;5826;54.756;9.192;2022-10-04T13:52:40;5.60;;;2.00;;
11539;SDS011;5826;54.756;9.192;2022-10-04T13:55:59;4.07;;;2.05;;
11539;SDS011;5826;54.756;9.192;2022-10-04T13:59:14;2.95;;;1.83;;
11539;SDS011;5826;54.756;9.192;2022-10-04T14:13:25;3.92;;;2.30;;
11539;SDS011;5826;54.756;9.192;2022-10-04T14:16:24;3.85;;;1.83;;
11539;SDS011;5826;54.756;9.192;2022-10-04T14:21:59;5.88;;;2.20;;
11539;SDS011;5826;54.756;9.192;2022-10-04T14:25:02;4.53;;;2.30;;
11539;SDS011;5826;54.756;9.192;2022-10-04T14:36:07;2.97;;;1.80;;
11539;SDS011;5826;54.756;9.192;2022-10-04T14:38:58;5.72;;;2.42;;
11539;SDS011;5826;54.756;9.192;2022-10-04T14:44:27;2.55;;;1.48;;
11539;SDS011;5826;54.756;9.192;2022-10-04T14:46:59;3.42;;;1.80;;
11539;SDS011;5826;54.756;9.192;2022-10-04T14:50:02;3.83;;;1.98;;
11539;SDS011;5826;54.756;9.192;2022-10-04T14:53:03;3.83;;;1.90;;
11539;SDS011;5826;54.756;9.192;2022-10-04T14:55:59;3.55;;;1.67;;
11539;SDS011;5826;54.756;9.192;2022-10-04T14:58:36;4.53;;;2.17;;
11539;SDS011;5826;54.756;9.192;2022-10-04T15:01:22;3.42;;;1.88;;
11539;SDS011;5826;54.756;9.192;2022-10-04T15:04:12;4.13;;;2.28;;
11539;SDS011;5826;54.756;9.192;2022-10-04T15:09:35;5.65;;;2.38;;
11539;SDS011;5826;54.756;9.192;2022-10-04T15:15:32;5.32;;;2.53;;
11539;SDS011;5826;54.756;9.192;2022-10-04T15:18:10;3.97;;;2.40;;
11539;SDS011;5826;54.756;9.192;2022-10-04T15:21:09;4.25;;;2.40;;
11539;SDS011;5826;54.756;9.192;2022-10-04T15:23:53;5.68;;;2.50;;
11539;SDS011;5826;54.756;9.192;2022-10-04T15:29:00;4.85;;;2.40;;
11539;SDS011;5826;54.756;9.192;2022-10-04T15:43:56;5.15;;;2.85;;
11539;SDS011;5826;54.756;9.192;2022-10-04T15:48:27;5.88;;;4.07;;
11539;SDS011;5826;54.756;9.192;2022-10-04T15:51:02;4.93;;;2.90;;
11539;SDS011;5826;54.756;9.192;2022-10-04T15:53:50;5.30;;;2.70;;
11539;SDS011;5826;54.756;9.192;2022-10-04T16:01:56;4.10;;;2.28;;
11539;SDS011;5826;54.756;9.192;2022-10-04T16:04:42;3.90;;;2.35;;
11539;SDS011;5826;54.756;9.192;2022-10-04T16:10:13;4.85;;;2.20;;
11539;SDS011;5826;54.756;9.192;2022-10-04T16:16:15;4.82;;;2.53;;
11539;SDS011;5826;54.756;9.192;2022-10-04T16:18:47;4.43;;;2.50;;
11539;SDS011;5826;54.756;9.192;2022-10-04T16:24:55;8.18;;;3.00;;
11539;SDS011;5826;54.756;9.192;2022-10-04T16:35:28;3.80;;;1.92;;
11539;SDS011;5826;54.756;9.192;2022-10-04T16:38:12;3.63;;;1.92;;
11539;SDS011;5826;54.756;9.192;2022-10-04T16:48:14;4.15;;;2.38;;
11539;SDS011;5826;54.756;9.192;2022-10-04T17:05:17;4.55;;;2.72;;
11539;SDS011;5826;54.756;9.192;2022-10-04T17:16:10;5.10;;;2.85;;
11539;SDS011;5826;54.756;9.192;2022-10-04T17:18:51;4.85;;;2.70;;
11539;SDS011;5826;54.756;9.192;2022-10-04T17:21:40;3.25;;;2.13;;
11539;SDS011;5826;54.756;9.192;2022-10-04T17:24:35;3.15;;;2.40;;
11539;SDS011;5826;54.756;9.192;2022-10-04T17:27:15;4.72;;;2.70;;
11539;SDS011;5826;54.756;9.192;2022-10-04T17:30:09;4.72;;;2.30;;
11539;SDS011;5826;54.756;9.192;2022-10-04T17:40:36;4.28;;;2.50;;
11539;SDS011;5826;54.756;9.192;2022-10-04T17:48:52;5.93;;;2.92;;
11539;SDS011;5826;54.756;9.192;2022-10-04T17:51:53;4.38;;;2.42;;
11539;SDS011;5826;54.756;9.192;2022-10-04T17:54:41;3.13;;;2.40;;
11539;SDS011;5826;54.756;9.192;2022-10-04T18:00:23;3.47;;;2.47;;
11539;SDS011;5826;54.756;9.192;2022-10-04T18:03:12;7.47;;;3.50;;
11539;SDS011;5826;54.756;9.192;2022-10-04T18:05:44;3.25;;;2.50;;
11539;SDS011;5826;54.756;9.192;2022-10-04T18:08:23;3.75;;;2.72;;
11539;SDS011;5826;54.756;9.192;2022-10-04T18:10:58;4.30;;;2.60;;
11539;SDS011;5826;54.756;9.192;2022-10-04T18:13:32;3.92;;;2.78;;
11539;SDS011;5826;54.756;9.192;2022-10-04T18:16:23;5.60;;;2.63;;
11539;SDS011;5826;54.756;9.192;2022-10-04T18:18:53;4.93;;;2.63;;
11539;SDS011;5826;54.756;9.192;2022-10-04T18:21:23;4.18;;;2.90;;
11539;SDS011;5826;54.756;9.192;2022-10-04T18:23:52;4.45;;;2.65;;
11539;SDS011;5826;54.756;9.192;2022-10-04T18:26:21;6.75;;;3.42;;
11539;SDS011;5826;54.756;9.192;2022-10-04T18:28:51;4.60;;;2.67;;
11539;SDS011;5826;54.756;9.192;2022-10-04T18:34:18;6.38;;;3.13;;
11539;SDS011;5826;54.756;9.192;2022-10-04T18:39:45;5.32;;;2.92;;
11539;SDS011;5826;54.756;9.192;2022-10-04T18:42:15;4.45;;;2.78;;
11539;SDS011;5826;54.756;9.192;2022-10-04T18:47:29;4.28;;;2.88;;
11539;SDS011;5826;54.756;9.192;2022-10-04T18:50:03;4.22;;;2.78;;
11539;SDS011;5826;54.756;9.192;2022-10-04T18:55:43;6.95;;;3.30;;
11539;SDS011;5826;54.756;9.192;2022-10-04T18:58:27;3.88;;;2.78;;
11539;SDS011;5826;54.756;9.192;2022-10-04T19:04:36;3.88;;;2.40;;
11539;SDS011;5826;54.756;9.192;2022-10-04T19:07:23;3.97;;;2.63;;
11539;SDS011;5826;54.756;9.192;2022-10-04T19:10:20;5.28;;;2.92;;
11539;SDS011;5826;54.756;9.192;2022-10-04T19:15:24;4.57;;;2.40;;
11539;SDS011;5826;54.756;9.192;2022-10-04T19:18:21;6.00;;;3.50;;
11539;SDS011;5826;54.756;9.192;2022-10-04T19:24:00;4.93;;;3.30;;
11539;SDS011;5826;54.756;9.192;2022-10-04T19:26:48;3.75;;;2.58;;
11539;SDS011;5826;54.756;9.192;2022-10-04T19:29:36;4.32;;;2.80;;
11539;SDS011;5826;54.756;9.192;2022-10-04T19:35:10;5.68;;;2.80;;
11539;SDS011;5826;54.756;9.192;2022-10-04T19:41:02;8.63;;;4.22;;
11539;SDS011;5826;54.756;9.192;2022-10-04T19:46:42;6.05;;;3.40;;
11539;SDS011;5826;54.756;9.192;2022-10-04T19:49:19;7.45;;;4.05;;
11539;SDS011;5826;54.756;9.192;2022-10-04T19:55:22;7.15;;;3.97;;
11539;SDS011;5826;54.756;9.192;2022-10-04T20:00:39;6.68;;;3.83;;
11539;SDS011;5826;54.756;9.192;2022-10-04T20:03:08;4.30;;;3.42;;
11539;SDS011;5826;54.756;9.192;2022-10-04T20:05:40;8.48;;;4.20;;
11539;SDS011;5826;54.756;9.192;2022-10-04T20:08:11;8.43;;;4.20;;
11539;SDS011;5826;54.756;9.192;2022-10-04T20:10:38;6.00;;;4.35;;
11539;SDS011;5826;54.756;9.192;2022-10-04T20:15:52;5.95;;;3.67;;
11539;SDS011;5826;54.756;9.192;2022-10-04T20:26:05;8.60;;;4.03;;
11539;SDS011;5826;54.756;9.192;2022-10-04T20:28:36;9.57;;;4.47;;
11539;SDS011;5826;54.756;9.192;2022-10-04T20:31:05;6.38;;;4.18;;
11539;SDS011;5826;54.756;9.192;2022-10-04T20:36:01;10.23;;;4.70;;
11539;SDS011;5826;54.756;9.192;2022-10-04T20:38:45;6.72;;;4.13;;
11539;SDS011;5826;54.756;9.192;2022-10-04T20:42:01;5.45;;;3.90;;
11539;SDS011;5826;54.756;9.192;2022-10-04T20:47:17;7.70;;;4.32;;
11539;SDS011;5826;54.756;9.192;2022-10-04T20:49:54;4.22;;;3.20;;
11539;SDS011;5826;54.756;9.192;2022-10-04T20:52:25;7.63;;;4.75;;
11539;SDS011;5826;54.756;9.192;2022-10-04T20:54:52;5.32;;;3.75;;
11539;SDS011;5826;54.756;9.192;2022-10-04T20:57:21;5.35;;;3.53;;
11539;SDS011;5826;54.756;9.192;2022-10-04T20:59:47;8.07;;;4.50;;
11539;SDS011;5826;54.756;9.192;2022-10-04T21:02:20;5.35;;;4.28;;
11539;SDS011;5826;54.756;9.192;2022-10-04T21:04:47;8.35;;;5.13;;
11539;SDS011;5826;54.756;9.192;2022-10-04T21:07:18;8.45;;;4.63;;
11539;SDS011;5826;54.756;9.192;2022-10-04T21:09:47;5.60;;;4.38;;
11539;SDS011;5826;54.756;9.192;2022-10-04T21:12:27;6.47;;;4.05;;
11539;SDS011;5826;54.756;9.192;2022-10-04T21:15:27;5.38;;;4.10;;
11539;SDS011;5826;54.756;9.192;2022-10-04T21:20:44;7.95;;;5.10;;
11539;SDS011;5826;54.756;9.192;2022-10-04T21:23:18;8.52;;;4.07;;
11539;SDS011;5826;54.756;9.192;2022-10-04T21:28:47;8.35;;;4.72;;
11539;SDS011;5826;54.756;9.192;2022-10-04T21:31:16;7.97;;;4.97;;
11539;SDS011;5826;54.756;9.192;2022-10-04T21:33:41;8.70;;;5.30;;
11539;SDS011;5826;54.756;9.192;2022-10-04T21:36:07;8.60;;;4.80;;
11539;SDS011;5826;54.756;9.192;2022-10-04T21:38:33;8.10;;;6.28;;
11539;SDS011;5826;54.756;9.192;2022-10-04T21:40:58;9.80;;;5.63;;
11539;SDS011;5826;54.756;9.192;2022-10-04T21:43:24;6.53;;;4.30;;
11539;SDS011;5826;54.756;9.192;2022-10-04T21:45:50;7.00;;;4.53;;
11539;SDS011;5826;54.756;9.192;2022-10-04T21:48:16;11.23;;;5.38;;
11539;SDS011;5826;54.756;9.192;2022-10-04T21:50:42;7.03;;;4.85;;
11539;SDS011;5826;54.756;9.192;2022-10-04T21:53:08;6.20;;;4.40;;
11539;SDS011;5826;54.756;9.192;2022-10-04T21:55:33;8.02;;;3.85;;
11539;SDS011;5826;54.756;9.192;2022-10-04T21:57:59;7.47;;;5.45;;
11539;SDS011;5826;54.756;9.192;2022-10-04T22:00:24;7.28;;;5.38;;
11539;SDS011;5826;54.756;9.192;2022-10-04T22:02:50;9.10;;;5.28;;
11539;SDS011;5826;54.756;9.192;2022-10-04T22:05:15;7.00;;;4.75;;
11539;SDS011;5826;54.756;9.192;2022-10-04T22:07:41;6.70;;;5.18;;
11539;SDS011;5826;54.756;9.192;2022-10-04T22:10:07;6.40;;;5.15;;
11539;SDS011;5826;54.756;9.192;2022-10-04T22:12:33;8.77;;;5.10;;
11539;SDS011;5826;54.756;9.192;2022-10-04T22:14:58;7.78;;;5.50;;
11539;SDS011;5826;54.756;9.192;2022-10-04T22:17:23;9.20;;;4.97;;
11539;SDS011;5826;54.756;9.192;2022-10-04T22:19:49;8.93;;;5.65;;
11539;SDS011;5826;54.756;9.192;2022-10-04T22:22:16;7.22;;;4.93;;
11539;SDS011;5826;54.756;9.192;2022-10-04T22:24:42;9.20;;;5.88;;
11539;SDS011;5826;54.756;9.192;2022-10-04T22:27:12;8.05;;;4.70;;
11539;SDS011;5826;54.756;9.192;2022-10-04T22:29:39;8.38;;;5.72;;
11539;SDS011;5826;54.756;9.192;2022-10-04T22:32:09;6.35;;;4.40;;
11539;SDS011;5826;54.756;9.192;2022-10-04T22:35:09;9.68;;;6.25;;
11539;SDS011;5826;54.756;9.192;2022-10-04T22:37:37;10.27;;;5.90;;
11539;SDS011;5826;54.756;9.192;2022-10-04T22:40:03;10.45;;;6.32;;
11539;SDS011;5826;54.756;9.192;2022-10-04T22:42:31;9.93;;;6.35;;
11539;SDS011;5826;54.756;9.192;2022-10-04T22:44:57;8.30;;;5.65;;
11539;SDS011;5826;54.756;9.192;2022-10-04T22:47:25;9.77;;;6.90;;
11539;SDS011;5826;54.756;9.192;2022-10-04T22:49:51;8.88;;;6.32;;
11539;SDS011;5826;54.756;9.192;2022-10-04T22:52:21;8.23;;;5.72;;
11539;SDS011;5826;54.756;9.192;2022-10-04T22:54:48;10.15;;;5.63;;
11539;SDS011;5826;54.756;9.192;2022-10-04T22:57:16;9.50;;;6.70;;
11539;SDS011;5826;54.756;9.192;2022-10-04T22:59:44;9.10;;;5.85;;
11539;SDS011;5826;54.756;9.192;2022-10-04T23:02:12;10.48;;;6.70;;
11539;SDS011;5826;54.756;9.192;2022-10-04T23:05:10;10.02;;;6.72;;
11539;SDS011;5826;54.756;9.192;2022-10-04T23:07:37;10.82;;;7.07;;
11539;SDS011;5826;54.756;9.192;2022-10-04T23:10:02;7.30;;;5.93;;
11539;SDS011;5826;54.756;9.192;2022-10-04T23:12:28;9.07;;;5.07;;
11539;SDS011;5826;54.756;9.192;2022-10-04T23:14:54;8.38;;;6.35;;
11539;SDS011;5826;54.756;9.192;2022-10-04T23:17:23;9.02;;;6.38;;
11539;SDS011;5826;54.756;9.192;2022-10-04T23:19:54;11.23;;;6.35;;
11539;SDS011;5826;54.756;9.192;2022-10-04T23:22:27;10.18;;;7.43;;
11539;SDS011;5826;54.756;9.192;2022-10-04T23:24:53;8.63;;;6.05;;
11539;SDS011;5826;54.756;9.192;2022-10-04T23:27:20;8.73;;;6.35;;
11539;SDS011;5826;54.756;9.192;2022-10-04T23:29:45;10.90;;;6.60;;
11539;SDS011;5826;54.756;9.192;2022-10-04T23:32:13;12.13;;;7.10;;
11539;SDS011;5826;54.756;9.192;2022-10-04T23:34:44;8.60;;;5.65;;
11539;SDS011;5826;54.756;9.192;2022-10-04T23:37:15;8.57;;;5.72;;
11539;SDS011;5826;54.756;9.192;2022-10-04T23:39:44;12.48;;;7.68;;